sensor_id;sensor_type;location;lat;lon;timestamp;pressure;altitude;pressure_sealevel;temperature;humidity
45323;BME280;31382;50.200;8.674;2023-08-17T00:03:55;100492.00;;;20.64;80.60
45323;BME280;31382;50.200;8.674;2023-08-17T00:08:57;100486.03;;;20.44;81.22
45323;BME280;31382;50.200;8.674;2023-08-17T00:13:58;100495.56;;;20.29;81.09
45323;BME280;31382;50.200;8.674;2023-08-17T00:19:00;100486.03;;;20.32;81.23
45323;BME280;31382;50.200;8.674;2023-08-17T00:24:01;100494.00;;;20.33;81.01
45323;BME280;31382;50.200;8.674;2023-08-17T00:29:03;100483.56;;;20.30;80.96
45323;BME280;31382;50.200;8.674;2023-08-17T00:34:04;100467.06;;;20.25;80.63
45323;BME280;31382;50.200;8.674;2023-08-17T00:39:06;100472.16;;;20.21;80.61
45323;BME280;31382;50.200;8.674;2023-08-17T00:44:07;100467.06;;;20.25;80.51
45323;BME280;31382;50.200;8.674;2023-08-17T00:49:09;100464.47;;;20.30;80.11
45323;BME280;31382;50.200;8.674;2023-08-17T00:54:11;100464.56;;;20.24;80.10
45323;BME280;31382;50.200;8.674;2023-08-17T00:59:13;100467.53;;;20.22;80.12
45323;BME280;31382;50.200;8.674;2023-08-17T01:04:15;100475.09;;;20.08;80.46
45323;BME280;31382;50.200;8.674;2023-08-17T01:09:16;100488.63;;;19.91;80.72
45323;BME280;31382;50.200;8.674;2023-08-17T01:14:31;100490.41;;;19.86;81.07
45323;BME280;31382;50.200;8.674;2023-08-17T01:19:34;100478.53;;;19.92;80.93
45323;BME280;31382;50.200;8.674;2023-08-17T01:24:36;100467.03;;;20.01;80.06
45323;BME280;31382;50.200;8.674;2023-08-17T01:29:38;100462.91;;;19.99;79.96
45323;BME280;31382;50.200;8.674;2023-08-17T01:34:41;100456.72;;;20.04;80.12
45323;BME280;31382;50.200;8.674;2023-08-17T01:39:49;100450.53;;;20.08;79.97
45323;BME280;31382;50.200;8.674;2023-08-17T01:44:51;100461.22;;;20.10;79.42
45323;BME280;31382;50.200;8.674;2023-08-17T01:49:53;100454.13;;;20.09;79.74
45323;BME280;31382;50.200;8.674;2023-08-17T01:54:54;100453.53;;;20.07;79.41
45323;BME280;31382;50.200;8.674;2023-08-17T01:59:56;100445.22;;;20.01;79.32
45323;BME280;31382;50.200;8.674;2023-08-17T02:04:57;100438.13;;;20.00;79.31
45323;BME280;31382;50.200;8.674;2023-08-17T02:09:59;100441.66;;;20.01;79.34
45323;BME280;31382;50.200;8.674;2023-08-17T02:15:03;100448.28;;;19.93;79.28
45323;BME280;31382;50.200;8.674;2023-08-17T02:20:05;100446.50;;;19.87;79.42
45323;BME280;31382;50.200;8.674;2023-08-17T02:25:07;100437.72;;;19.85;79.30
45323;BME280;31382;50.200;8.674;2023-08-17T02:30:09;100437.72;;;19.85;79.39
45323;BME280;31382;50.200;8.674;2023-08-17T02:35:11;100443.88;;;19.80;79.37
45323;BME280;31382;50.200;8.674;2023-08-17T02:40:12;100445.94;;;19.67;79.58
45323;BME280;31382;50.200;8.674;2023-08-17T02:45:14;100448.34;;;19.63;79.38
45323;BME280;31382;50.200;8.674;2023-08-17T02:50:15;100443.34;;;19.60;79.58
45323;BME280;31382;50.200;8.674;2023-08-17T02:55:17;100438.69;;;19.49;79.53
45323;BME280;31382;50.200;8.674;2023-08-17T03:00:18;100442.09;;;19.44;79.81
45323;BME280;31382;50.200;8.674;2023-08-17T03:05:20;100434.16;;;19.42;79.88
45323;BME280;31382;50.200;8.674;2023-08-17T03:10:22;100429.78;;;19.41;79.69
45323;BME280;31382;50.200;8.674;2023-08-17T03:15:24;100416.81;;;19.37;79.62
45323;BME280;31382;50.200;8.674;2023-08-17T03:20:25;100418.50;;;19.38;79.69
45323;BME280;31382;50.200;8.674;2023-08-17T03:25:26;100414.69;;;19.39;79.42
45323;BME280;31382;50.200;8.674;2023-08-17T03:30:28;100416.38;;;19.40;79.54
45323;BME280;31382;50.200;8.674;2023-08-17T03:35:29;100422.06;;;19.38;79.32
45323;BME280;31382;50.200;8.674;2023-08-17T03:40:31;100425.00;;;19.37;79.35
45323;BME280;31382;50.200;8.674;2023-08-17T03:45:32;100426.09;;;19.36;79.21
45323;BME280;31382;50.200;8.674;2023-08-17T03:50:34;100432.00;;;19.33;79.25
45323;BME280;31382;50.200;8.674;2023-08-17T03:55:37;100438.38;;;19.27;79.57
45323;BME280;31382;50.200;8.674;2023-08-17T04:00:39;100443.59;;;19.28;79.37
45323;BME280;31382;50.200;8.674;2023-08-17T04:05:41;100440.03;;;19.28;79.23
45323;BME280;31382;50.200;8.674;2023-08-17T04:10:43;100444.03;;;19.25;79.31
45323;BME280;31382;50.200;8.674;2023-08-17T04:15:44;100449.97;;;19.22;79.36
45323;BME280;31382;50.200;8.674;2023-08-17T04:20:46;100457.94;;;19.24;79.20
45323;BME280;31382;50.200;8.674;2023-08-17T04:25:48;100466.56;;;19.20;79.27
45323;BME280;31382;50.200;8.674;2023-08-17T04:30:49;100463.44;;;19.17;79.13
45323;BME280;31382;50.200;8.674;2023-08-17T04:35:51;100477.00;;;19.24;79.11
45323;BME280;31382;50.200;8.674;2023-08-17T04:40:53;100477.00;;;19.24;79.36
45323;BME280;31382;50.200;8.674;2023-08-17T04:45:54;100471.06;;;19.27;79.31
45323;BME280;31382;50.200;8.674;2023-08-17T04:50:55;100469.56;;;19.31;79.42
45323;BME280;31382;50.200;8.674;2023-08-17T04:55:58;100476.69;;;19.32;79.61
45323;BME280;31382;50.200;8.674;2023-08-17T05:01:00;100479.03;;;19.28;79.43
45323;BME280;31382;50.200;8.674;2023-08-17T05:06:01;100477.06;;;19.35;79.41
45323;BME280;31382;50.200;8.674;2023-08-17T05:11:03;100471.72;;;19.40;79.27
45323;BME280;31382;50.200;8.674;2023-08-17T05:16:04;100477.78;;;19.42;79.48
45323;BME280;31382;50.200;8.674;2023-08-17T05:21:06;100488.13;;;19.52;79.31
45323;BME280;31382;50.200;8.674;2023-08-17T05:26:08;100485.56;;;19.57;79.47
45323;BME280;31382;50.200;8.674;2023-08-17T05:31:09;100495.31;;;19.65;79.57
45323;BME280;31382;50.200;8.674;2023-08-17T05:36:11;100488.72;;;19.73;79.81
45323;BME280;31382;50.200;8.674;2023-08-17T05:41:14;100490.63;;;19.84;80.04
45323;BME280;31382;50.200;8.674;2023-08-17T05:46:16;100493.59;;;19.94;79.90
45323;BME280;31382;50.200;8.674;2023-08-17T05:51:18;100494.69;;;20.05;80.31
45323;BME280;31382;50.200;8.674;2023-08-17T05:56:19;100495.75;;;20.16;80.49
45323;BME280;31382;50.200;8.674;2023-08-17T06:01:21;100500.66;;;20.26;80.43
45323;BME280;31382;50.200;8.674;2023-08-17T06:06:22;100499.00;;;20.36;80.43
45323;BME280;31382;50.200;8.674;2023-08-17T06:11:24;100500.88;;;20.48;80.51
45323;BME280;31382;50.200;8.674;2023-08-17T06:16:25;100506.25;;;20.54;80.21
45323;BME280;31382;50.200;8.674;2023-08-17T06:21:27;100509.09;;;20.71;79.99
45323;BME280;31382;50.200;8.674;2023-08-17T06:26:28;100515.78;;;20.75;80.67
45323;BME280;31382;50.200;8.674;2023-08-17T06:31:30;100505.16;;;20.91;80.06
45323;BME280;31382;50.200;8.674;2023-08-17T06:36:31;100500.59;;;21.08;79.94
45323;BME280;31382;50.200;8.674;2023-08-17T06:41:33;100511.59;;;21.25;79.92
45323;BME280;31382;50.200;8.674;2023-08-17T06:46:35;100515.47;;;21.41;79.75
45323;BME280;31382;50.200;8.674;2023-08-17T06:51:36;100508.34;;;21.40;80.17
45323;BME280;31382;50.200;8.674;2023-08-17T06:56:38;100504.06;;;21.44;79.89
45323;BME280;31382;50.200;8.674;2023-08-17T07:01:39;100497.97;;;21.42;80.20
45323;BME280;31382;50.200;8.674;2023-08-17T07:06:41;100512.38;;;21.49;80.22
45323;BME280;31382;50.200;8.674;2023-08-17T07:11:42;100518.19;;;21.53;80.14
45323;BME280;31382;50.200;8.674;2023-08-17T07:16:44;100513.78;;;21.52;80.28
45323;BME280;31382;50.200;8.674;2023-08-17T07:21:45;100506.28;;;21.59;80.12
45323;BME280;31382;50.200;8.674;2023-08-17T07:26:46;100511.44;;;21.72;80.02
45323;BME280;31382;50.200;8.674;2023-08-17T07:31:48;100512.09;;;21.79;79.63
45323;BME280;31382;50.200;8.674;2023-08-17T07:36:49;100507.31;;;21.87;79.54
45323;BME280;31382;50.200;8.674;2023-08-17T07:41:51;100513.28;;;22.17;79.77
45323;BME280;31382;50.200;8.674;2023-08-17T07:46:53;100517.88;;;22.29;80.00
45323;BME280;31382;50.200;8.674;2023-08-17T07:51:55;100526.00;;;22.57;79.72
45323;BME280;31382;50.200;8.674;2023-08-17T07:56:56;100528.44;;;22.76;79.84
45323;BME280;31382;50.200;8.674;2023-08-17T08:01:58;100525.09;;;22.91;79.81
45323;BME280;31382;50.200;8.674;2023-08-17T08:06:59;100527.31;;;22.94;79.20
45323;BME280;31382;50.200;8.674;2023-08-17T08:12:01;100517.66;;;23.08;79.06
45323;BME280;31382;50.200;8.674;2023-08-17T08:17:02;100524.69;;;23.21;79.11
45323;BME280;31382;50.200;8.674;2023-08-17T08:22:04;100513.41;;;23.17;79.13
45323;BME280;31382;50.200;8.674;2023-08-17T08:27:05;100511.03;;;23.26;78.77
45323;BME280;31382;50.200;8.674;2023-08-17T08:32:07;100506.41;;;23.54;78.58
45323;BME280;31382;50.200;8.674;2023-08-17T08:37:08;100523.94;;;23.53;78.60
45323;BME280;31382;50.200;8.674;2023-08-17T08:42:10;100513.53;;;23.55;78.35
45323;BME280;31382;50.200;8.674;2023-08-17T08:47:12;100512.75;;;23.60;78.45
45323;BME280;31382;50.200;8.674;2023-08-17T08:52:19;100516.06;;;23.62;78.29
45323;BME280;31382;50.200;8.674;2023-08-17T08:57:21;100511.41;;;23.84;78.25
45323;BME280;31382;50.200;8.674;2023-08-17T09:02:23;100515.75;;;23.80;78.00
45323;BME280;31382;50.200;8.674;2023-08-17T09:07:26;100509.72;;;23.83;78.42
45323;BME280;31382;50.200;8.674;2023-08-17T09:12:30;100512.06;;;23.97;77.94
45323;BME280;31382;50.200;8.674;2023-08-17T09:17:40;100505.38;;;23.87;77.66
45323;BME280;31382;50.200;8.674;2023-08-17T09:22:43;100501.94;;;24.02;78.10
45323;BME280;31382;50.200;8.674;2023-08-17T09:27:45;100495.25;;;24.25;77.34
45323;BME280;31382;50.200;8.674;2023-08-17T09:32:47;100490.53;;;24.53;77.26
45323;BME280;31382;50.200;8.674;2023-08-17T09:37:49;100491.66;;;24.62;77.06
45323;BME280;31382;50.200;8.674;2023-08-17T09:42:51;100493.66;;;24.72;77.39
45323;BME280;31382;50.200;8.674;2023-08-17T09:47:53;100492.22;;;24.64;76.89
45323;BME280;31382;50.200;8.674;2023-08-17T09:52:54;100502.50;;;24.79;76.87
45323;BME280;31382;50.200;8.674;2023-08-17T09:57:57;100484.41;;;24.88;76.70
45323;BME280;31382;50.200;8.674;2023-08-17T10:03:02;100480.31;;;24.96;76.56
45323;BME280;31382;50.200;8.674;2023-08-17T10:08:10;100476.06;;;25.46;76.20
45323;BME280;31382;50.200;8.674;2023-08-17T10:13:17;100467.31;;;25.80;76.28
45323;BME280;31382;50.200;8.674;2023-08-17T10:18:34;100465.97;;;25.93;76.82
45323;BME280;31382;50.200;8.674;2023-08-17T10:23:38;100465.66;;;26.10;76.83
45323;BME280;31382;50.200;8.674;2023-08-17T10:28:44;100469.53;;;26.19;77.04
45323;BME280;31382;50.200;8.674;2023-08-17T10:33:46;100465.88;;;26.55;76.53
45323;BME280;31382;50.200;8.674;2023-08-17T10:39:21;100468.75;;;26.99;76.57
45323;BME280;31382;50.200;8.674;2023-08-17T10:49:43;100458.53;;;27.55;76.96
45323;BME280;31382;50.200;8.674;2023-08-17T10:54:44;100466.31;;;28.21;76.09
45323;BME280;31382;50.200;8.674;2023-08-17T10:59:46;100462.78;;;28.69;75.87
45323;BME280;31382;50.200;8.674;2023-08-17T11:04:53;100466.47;;;29.07;76.34
45323;BME280;31382;50.200;8.674;2023-08-17T11:09:54;100470.63;;;29.29;76.14
45323;BME280;31382;50.200;8.674;2023-08-17T11:14:57;100471.50;;;29.24;76.61
45323;BME280;31382;50.200;8.674;2023-08-17T11:20:01;100479.16;;;29.14;76.20
45323;BME280;31382;50.200;8.674;2023-08-17T11:25:04;100463.91;;;29.35;73.60
45323;BME280;31382;50.200;8.674;2023-08-17T11:30:06;100463.50;;;29.61;70.92
45323;BME280;31382;50.200;8.674;2023-08-17T11:35:09;100461.78;;;29.84;69.99
45323;BME280;31382;50.200;8.674;2023-08-17T11:40:12;100468.97;;;29.85;68.57
45323;BME280;31382;50.200;8.674;2023-08-17T11:45:14;100460.19;;;29.97;66.86
45323;BME280;31382;50.200;8.674;2023-08-17T11:50:17;100447.72;;;29.80;66.62
45323;BME280;31382;50.200;8.674;2023-08-17T11:55:21;100449.94;;;30.11;65.02
45323;BME280;31382;50.200;8.674;2023-08-17T12:00:23;100442.09;;;29.99;64.34
45323;BME280;31382;50.200;8.674;2023-08-17T12:05:26;100444.16;;;30.54;63.17
45323;BME280;31382;50.200;8.674;2023-08-17T12:10:33;100441.31;;;30.59;62.88
45323;BME280;31382;50.200;8.674;2023-08-17T12:15:35;100436.66;;;30.96;61.66
45323;BME280;31382;50.200;8.674;2023-08-17T12:20:37;100435.00;;;31.46;60.44
45323;BME280;31382;50.200;8.674;2023-08-17T12:25:38;100423.75;;;31.96;59.41
45323;BME280;31382;50.200;8.674;2023-08-17T12:30:40;100438.25;;;32.07;59.50
45323;BME280;31382;50.200;8.674;2023-08-17T12:35:41;100431.25;;;32.09;59.13
45323;BME280;31382;50.200;8.674;2023-08-17T12:40:42;100449.19;;;32.03;59.22
45323;BME280;31382;50.200;8.674;2023-08-17T12:45:44;100444.78;;;31.43;58.77
45323;BME280;31382;50.200;8.674;2023-08-17T12:50:45;100444.72;;;31.34;58.49
45323;BME280;31382;50.200;8.674;2023-08-17T12:55:47;100446.53;;;31.53;58.61
45323;BME280;31382;50.200;8.674;2023-08-17T13:00:48;100445.69;;;32.20;57.25
45323;BME280;31382;50.200;8.674;2023-08-17T13:05:51;100442.88;;;32.51;56.23
45323;BME280;31382;50.200;8.674;2023-08-17T13:10:53;100434.00;;;32.89;54.99
45323;BME280;31382;50.200;8.674;2023-08-17T13:15:54;100439.81;;;32.21;54.34
45323;BME280;31382;50.200;8.674;2023-08-17T13:20:56;100436.50;;;31.97;53.97
45323;BME280;31382;50.200;8.674;2023-08-17T13:25:57;100416.13;;;32.33;52.43
45323;BME280;31382;50.200;8.674;2023-08-17T13:30:59;100421.00;;;32.58;51.79
45323;BME280;31382;50.200;8.674;2023-08-17T13:36:20;100415.63;;;32.71;51.01
45323;BME280;31382;50.200;8.674;2023-08-17T13:41:22;100407.00;;;32.98;49.32
45323;BME280;31382;50.200;8.674;2023-08-17T13:46:26;100399.44;;;32.90;48.96
45323;BME280;31382;50.200;8.674;2023-08-17T13:51:27;100391.91;;;32.91;48.72
45323;BME280;31382;50.200;8.674;2023-08-17T13:56:29;100388.84;;;33.18;47.64
45323;BME280;31382;50.200;8.674;2023-08-17T14:01:30;100380.38;;;33.97;47.03
45323;BME280;31382;50.200;8.674;2023-08-17T14:06:32;100371.31;;;34.77;45.38
45323;BME280;31382;50.200;8.674;2023-08-17T14:11:33;100364.75;;;35.57;43.82
45323;BME280;31382;50.200;8.674;2023-08-17T14:16:36;100366.53;;;36.44;42.61
45323;BME280;31382;50.200;8.674;2023-08-17T14:21:37;100352.00;;;37.32;41.50
45323;BME280;31382;50.200;8.674;2023-08-17T14:26:39;100350.31;;;38.35;38.57
45323;BME280;31382;50.200;8.674;2023-08-17T14:31:40;100347.69;;;38.78;37.32
45323;BME280;31382;50.200;8.674;2023-08-17T14:36:41;100332.56;;;39.21;35.73
45323;BME280;31382;50.200;8.674;2023-08-17T14:41:43;100322.50;;;39.20;35.22
45323;BME280;31382;50.200;8.674;2023-08-17T14:46:47;100316.72;;;37.91;36.86
45323;BME280;31382;50.200;8.674;2023-08-17T14:51:50;100312.94;;;37.11;37.39
45323;BME280;31382;50.200;8.674;2023-08-17T14:56:52;100304.09;;;36.56;38.09
45323;BME280;31382;50.200;8.674;2023-08-17T15:01:57;100301.19;;;36.03;39.06
45323;BME280;31382;50.200;8.674;2023-08-17T15:06:59;100299.00;;;36.09;38.36
45323;BME280;31382;50.200;8.674;2023-08-17T15:12:00;100274.06;;;36.16;38.32
45323;BME280;31382;50.200;8.674;2023-08-17T15:17:07;100274.41;;;36.02;38.13
45323;BME280;31382;50.200;8.674;2023-08-17T15:22:13;100252.41;;;35.55;38.48
45323;BME280;31382;50.200;8.674;2023-08-17T15:27:16;100241.09;;;35.51;38.82
45323;BME280;31382;50.200;8.674;2023-08-17T15:32:17;100229.13;;;35.51;38.89
45323;BME280;31382;50.200;8.674;2023-08-17T15:37:19;100225.59;;;35.29;38.84
45323;BME280;31382;50.200;8.674;2023-08-17T15:42:20;100246.75;;;35.18;39.16
45323;BME280;31382;50.200;8.674;2023-08-17T15:47:22;100241.31;;;35.01;39.51
45323;BME280;31382;50.200;8.674;2023-08-17T15:52:23;100249.47;;;35.06;39.41
45323;BME280;31382;50.200;8.674;2023-08-17T15:57:25;100255.53;;;34.74;39.39
45323;BME280;31382;50.200;8.674;2023-08-17T16:02:27;100256.88;;;34.68;39.57
45323;BME280;31382;50.200;8.674;2023-08-17T16:07:28;100258.53;;;34.40;39.88
45323;BME280;31382;50.200;8.674;2023-08-17T16:12:30;100265.25;;;34.17;40.30
45323;BME280;31382;50.200;8.674;2023-08-17T16:17:31;100271.41;;;34.32;40.24
45323;BME280;31382;50.200;8.674;2023-08-17T16:22:32;100275.13;;;34.06;40.30
45323;BME280;31382;50.200;8.674;2023-08-17T16:27:34;100272.81;;;34.08;40.42
45323;BME280;31382;50.200;8.674;2023-08-17T16:32:39;100270.25;;;34.03;41.39
45323;BME280;31382;50.200;8.674;2023-08-17T16:37:41;100279.56;;;34.07;40.68
45323;BME280;31382;50.200;8.674;2023-08-17T16:42:43;100286.22;;;34.24;40.31
45323;BME280;31382;50.200;8.674;2023-08-17T16:47:44;100292.72;;;34.57;39.88
45323;BME280;31382;50.200;8.674;2023-08-17T16:52:46;100299.91;;;34.67;39.28
45323;BME280;31382;50.200;8.674;2023-08-17T16:57:48;100308.78;;;34.19;39.81
45323;BME280;31382;50.200;8.674;2023-08-17T17:02:49;100301.06;;;33.77;39.71
45323;BME280;31382;50.200;8.674;2023-08-17T17:07:51;100310.94;;;33.48;40.11
45323;BME280;31382;50.200;8.674;2023-08-17T17:12:52;100311.47;;;32.89;40.62
45323;BME280;31382;50.200;8.674;2023-08-17T17:17:53;100304.41;;;32.57;41.78
45323;BME280;31382;50.200;8.674;2023-08-17T17:22:55;100301.56;;;32.48;41.95
45323;BME280;31382;50.200;8.674;2023-08-17T17:27:57;100292.78;;;32.81;41.39
45323;BME280;31382;50.200;8.674;2023-08-17T17:32:59;100295.13;;;33.14;40.51
45323;BME280;31382;50.200;8.674;2023-08-17T17:38:00;100286.25;;;33.12;41.24
45323;BME280;31382;50.200;8.674;2023-08-17T17:43:02;100287.06;;;32.77;41.62
45323;BME280;31382;50.200;8.674;2023-08-17T17:48:04;100277.22;;;32.71;41.78
45323;BME280;31382;50.200;8.674;2023-08-17T17:53:06;100284.84;;;32.31;42.61
45323;BME280;31382;50.200;8.674;2023-08-17T17:58:07;100287.69;;;31.99;42.81
45323;BME280;31382;50.200;8.674;2023-08-17T18:03:13;100287.84;;;31.63;43.47
45323;BME280;31382;50.200;8.674;2023-08-17T18:08:15;100293.19;;;31.28;43.96
45323;BME280;31382;50.200;8.674;2023-08-17T18:13:16;100298.34;;;30.98;44.56
45323;BME280;31382;50.200;8.674;2023-08-17T18:18:18;100306.72;;;30.71;45.36
45323;BME280;31382;50.200;8.674;2023-08-17T18:23:19;100305.75;;;30.39;46.20
45323;BME280;31382;50.200;8.674;2023-08-17T18:28:21;100315.81;;;30.07;46.95
45323;BME280;31382;50.200;8.674;2023-08-17T18:33:22;100314.84;;;29.70;48.09
45323;BME280;31382;50.200;8.674;2023-08-17T18:38:25;100321.00;;;29.34;48.14
45323;BME280;31382;50.200;8.674;2023-08-17T18:43:26;100327.16;;;29.12;48.93
45323;BME280;31382;50.200;8.674;2023-08-17T18:48:28;100337.09;;;28.94;49.32
45323;BME280;31382;50.200;8.674;2023-08-17T18:53:29;100344.66;;;28.70;50.52
45323;BME280;31382;50.200;8.674;2023-08-17T18:58:31;100356.56;;;28.46;51.38
45323;BME280;31382;50.200;8.674;2023-08-17T19:03:32;100356.91;;;28.15;51.97
45323;BME280;31382;50.200;8.674;2023-08-17T19:08:34;100371.81;;;27.90;52.79
45323;BME280;31382;50.200;8.674;2023-08-17T19:13:35;100378.91;;;27.67;53.46
45323;BME280;31382;50.200;8.674;2023-08-17T19:18:37;100379.38;;;27.45;53.92
45323;BME280;31382;50.200;8.674;2023-08-17T19:23:38;100387.81;;;27.19;54.43
45323;BME280;31382;50.200;8.674;2023-08-17T19:28:40;100384.09;;;26.95;55.43
45323;BME280;31382;50.200;8.674;2023-08-17T19:33:41;100380.88;;;26.77;55.80
45323;BME280;31382;50.200;8.674;2023-08-17T19:38:42;100377.34;;;26.61;56.26
45323;BME280;31382;50.200;8.674;2023-08-17T19:43:44;100380.94;;;26.51;56.80
45323;BME280;31382;50.200;8.674;2023-08-17T19:48:45;100377.16;;;26.42;56.79
45323;BME280;31382;50.200;8.674;2023-08-17T19:53:47;100368.34;;;26.30;57.50
45323;BME280;31382;50.200;8.674;2023-08-17T19:58:48;100369.19;;;26.20;57.53
45323;BME280;31382;50.200;8.674;2023-08-17T20:03:49;100372.53;;;26.17;58.06
45323;BME280;31382;50.200;8.674;2023-08-17T20:08:54;100365.66;;;26.09;58.46
45323;BME280;31382;50.200;8.674;2023-08-17T20:13:56;100372.28;;;25.98;58.93
45323;BME280;31382;50.200;8.674;2023-08-17T20:18:57;100383.56;;;25.86;58.86
45323;BME280;31382;50.200;8.674;2023-08-17T20:23:59;100377.00;;;25.77;59.27
45323;BME280;31382;50.200;8.674;2023-08-17T20:29:00;100383.03;;;25.69;59.53
45323;BME280;31382;50.200;8.674;2023-08-17T20:34:01;100378.09;;;25.66;59.39
45323;BME280;31382;50.200;8.674;2023-08-17T20:39:07;100372.59;;;25.56;59.98
45323;BME280;31382;50.200;8.674;2023-08-17T20:44:11;100378.09;;;25.50;59.95
45323;BME280;31382;50.200;8.674;2023-08-17T20:49:13;100377.28;;;25.40;59.83
45323;BME280;31382;50.200;8.674;2023-08-17T20:54:14;100375.31;;;25.35;59.92
45323;BME280;31382;50.200;8.674;2023-08-17T20:59:16;100382.47;;;25.26;60.12
45323;BME280;31382;50.200;8.674;2023-08-17T21:04:18;100375.28;;;25.14;60.82
45323;BME280;31382;50.200;8.674;2023-08-17T21:09:20;100364.25;;;25.04;61.14
45323;BME280;31382;50.200;8.674;2023-08-17T21:14:22;100364.50;;;24.92;61.53
45323;BME280;31382;50.200;8.674;2023-08-17T21:19:23;100364.47;;;24.87;61.66
45323;BME280;31382;50.200;8.674;2023-08-17T21:24:25;100354.84;;;24.90;61.78
45323;BME280;31382;50.200;8.674;2023-08-17T21:29:27;100355.41;;;24.87;61.75
45323;BME280;31382;50.200;8.674;2023-08-17T21:34:28;100356.78;;;24.84;61.56
45323;BME280;31382;50.200;8.674;2023-08-17T21:39:29;100346.56;;;24.80;62.22
45323;BME280;31382;50.200;8.674;2023-08-17T21:44:31;100350.44;;;24.79;61.75
45323;BME280;31382;50.200;8.674;2023-08-17T21:49:33;100349.03;;;24.76;62.01
45323;BME280;31382;50.200;8.674;2023-08-17T21:54:34;100344.06;;;24.68;62.34
45323;BME280;31382;50.200;8.674;2023-08-17T21:59:35;100342.66;;;24.55;63.03
45323;BME280;31382;50.200;8.674;2023-08-17T22:04:37;100338.47;;;24.47;63.48
45323;BME280;31382;50.200;8.674;2023-08-17T22:09:38;100343.13;;;24.42;63.47
45323;BME280;31382;50.200;8.674;2023-08-17T22:14:40;100339.78;;;24.34;63.58
45323;BME280;31382;50.200;8.674;2023-08-17T22:19:41;100338.66;;;24.25;64.20
45323;BME280;31382;50.200;8.674;2023-08-17T22:24:43;100336.13;;;24.19;64.23
45323;BME280;31382;50.200;8.674;2023-08-17T22:29:52;100342.66;;;24.02;64.98
45323;BME280;31382;50.200;8.674;2023-08-17T22:34:53;100341.78;;;23.91;65.03
45323;BME280;31382;50.200;8.674;2023-08-17T22:39:55;100342.81;;;23.85;64.93
45323;BME280;31382;50.200;8.674;2023-08-17T22:44:56;100349.94;;;23.81;65.20
45323;BME280;31382;50.200;8.674;2023-08-17T22:49:58;100340.22;;;23.73;65.22
45323;BME280;31382;50.200;8.674;2023-08-17T22:54:59;100334.72;;;23.68;65.34
45323;BME280;31382;50.200;8.674;2023-08-17T23:00:01;100342.66;;;23.65;65.50
45323;BME280;31382;50.200;8.674;2023-08-17T23:05:03;100341.22;;;23.57;66.01
45323;BME280;31382;50.200;8.674;2023-08-17T23:10:05;100353.25;;;23.51;66.13
45323;BME280;31382;50.200;8.674;2023-08-17T23:15:07;100362.78;;;23.43;66.16
45323;BME280;31382;50.200;8.674;2023-08-17T23:20:10;100361.16;;;23.42;66.15
45323;BME280;31382;50.200;8.674;2023-08-17T23:25:12;100356.69;;;23.36;66.66
45323;BME280;31382;50.200;8.674;2023-08-17T23:30:13;100353.69;;;23.38;66.35
45323;BME280;31382;50.200;8.674;2023-08-17T23:35:15;100361.03;;;23.32;66.67
45323;BME280;31382;50.200;8.674;2023-08-17T23:40:16;100350.63;;;23.34;66.41
45323;BME280;31382;50.200;8.674;2023-08-17T23:45:18;100345.09;;;23.29;66.53
45323;BME280;31382;50.200;8.674;2023-08-17T23:50:20;100346.19;;;23.28;66.52
45323;BME280;31382;50.200;8.674;2023-08-17T23:55:21;100337.06;;;23.22;66.77
